createdAt,value
2022-10-23T00:01:23.086Z,-11114.41
2022-10-23T00:04:30.822Z,-11120.59
2022-10-23T00:07:37.143Z,-11109.06
2022-10-23T00:10:44.359Z,-11120.31
2022-10-23T00:13:51.417Z,-11112.72
2022-10-23T00:16:57.394Z,-11126.78
2022-10-23T00:20:07.358Z,-11132.38
2022-10-23T00:23:13.729Z,-11135.91
2022-10-23T00:26:19.977Z,-11128.19
2022-10-23T00:29:28.212Z,-11108.37
2022-10-23T00:32:34.470Z,-11103.31
2022-10-23T00:35:42.887Z,-11112.44
2022-10-23T00:38:50.296Z,-11125.09
2022-10-23T00:41:56.758Z,-11125.09
2022-10-23T00:45:22.690Z,-11131.25
2022-10-23T00:48:30.059Z,-11126.34
2022-10-23T00:51:42.027Z,-11122.28
2022-10-23T00:54:48.242Z,-11102.75
2022-10-23T00:57:54.919Z,-11120.31
2022-10-23T01:01:01.068Z,-11110.63
2022-10-23T01:04:09.399Z,-11102.47
2022-10-23T01:07:24.133Z,-11097.41
2022-10-23T01:10:38.082Z,-11109.63
2022-10-23T01:13:50.991Z,-11108.22
2022-10-23T01:17:06.762Z,-11107.69
2022-10-23T01:20:33.039Z,-11105.72
2022-10-23T01:24:09.105Z,-11119.47
2022-10-23T01:27:24.042Z,-11129.31
2022-10-23T01:30:31.997Z,-11123.13
2022-10-23T01:33:42.467Z,-11126.78
2022-10-23T01:36:50.695Z,-11121.16
2022-10-23T01:40:02.711Z,-11116.25
2022-10-23T01:43:18.147Z,-11103.75
2022-10-23T01:46:27.265Z,-11103.75
2022-10-23T01:49:34.978Z,-11113.16
2022-10-23T01:52:41.756Z,-11116.66
2022-10-23T01:55:50.675Z,-11120.88
2022-10-23T01:59:01.312Z,-11113.72
2022-10-23T02:02:08.754Z,-11108.94
2022-10-23T02:05:20.803Z,-11082.81
2022-10-23T02:08:27.303Z,-11083.38
2022-10-23T02:11:38.339Z,-11074.53
2022-10-23T02:14:53.458Z,-11096.56
2022-10-23T02:18:07.510Z,-11107.81
2022-10-23T02:21:17.983Z,-11113.56
2022-10-23T02:24:32.846Z,-11107.97
2022-10-23T02:27:44.093Z,-11097.28
2022-10-23T02:30:52.093Z,-11092.38
2022-10-23T02:33:58.424Z,-11101.78
2022-10-23T02:37:05.038Z,-11100.94
2022-10-23T02:40:13.190Z,-11098.97
2022-10-23T02:43:25.541Z,-11101.34
2022-10-23T02:46:45.878Z,-11109.06
2022-10-23T02:49:58.643Z,-11106.56
2022-10-23T02:53:12.313Z,-11095.59
2022-10-23T02:56:24.392Z,-11107.13
2022-10-23T02:59:38.495Z,-11113.00
2022-10-23T03:02:48.849Z,-11110.91
2022-10-23T03:05:54.817Z,-11102.75
2022-10-23T03:09:03.279Z,-11091.38
2022-10-23T03:12:09.200Z,-11092.66
2022-10-23T03:15:16.040Z,-11105.72
2022-10-23T03:18:23.489Z,-11106.28
2022-10-23T03:21:29.560Z,-11106.56
2022-10-23T03:24:35.442Z,-11106.56
2022-10-23T03:27:41.603Z,-11114.41
2022-10-23T03:30:47.935Z,-11102.34
2022-10-23T03:33:55.863Z,-11103.19
2022-10-23T03:37:02.215Z,-11107.41
2022-10-23T03:40:09.864Z,-11100.38
2022-10-23T03:43:16.511Z,-11106.69
2022-10-23T03:46:22.909Z,-11098.13
2022-10-23T03:49:30.782Z,-11104.03
2022-10-23T03:52:36.860Z,-11106.84
2022-10-23T03:55:44.930Z,-11110.19
2022-10-23T03:58:51.540Z,-11108.78
2022-10-23T04:01:58.031Z,-11093.78
2022-10-23T04:05:05.830Z,-11098.13
2022-10-23T04:08:14.169Z,-11093.91
2022-10-23T04:11:23.503Z,-11101.78
2022-10-23T04:14:30.099Z,-11101.22
2022-10-23T04:17:36.361Z,-11082.94
2022-10-23T04:20:44.098Z,-11082.13
2022-10-23T04:23:50.134Z,-11071.72
2022-10-23T04:26:56.418Z,-11072.00
2022-10-23T04:30:03.792Z,-11083.78
2022-10-23T04:33:10.273Z,-11089.69
2022-10-23T04:36:17.992Z,-11091.53
2022-10-23T04:39:24.136Z,-11099.81
2022-10-23T04:42:30.289Z,-11107.41
2022-10-23T04:45:36.533Z,-11088.00
2022-10-23T04:48:42.876Z,-11093.34
2022-10-23T04:51:50.621Z,-11102.47
2022-10-23T04:54:56.559Z,-11103.47
2022-10-23T04:58:02.652Z,-11099.53
2022-10-23T05:01:10.640Z,-11097.84
2022-10-23T05:04:16.859Z,-11104.03
2022-10-23T05:07:24.631Z,-11107.41
2022-10-23T05:10:31.528Z,-11119.59
2022-10-23T05:13:37.801Z,-11124.53
2022-10-23T05:16:49.535Z,-11130.56
2022-10-23T05:19:57.462Z,-11139.13
2022-10-23T05:23:10.029Z,-11138.84
2022-10-23T05:26:16.347Z,-11143.62
2022-10-23T05:29:22.807Z,-11147.97
2022-10-23T05:32:32.195Z,-11147.28
2022-10-23T05:35:39.415Z,-11158.81
2022-10-23T05:38:47.853Z,-11157.53
2022-10-23T05:41:55.137Z,-11173.72
2022-10-23T05:45:01.172Z,-11194.94
2022-10-23T05:48:17.020Z,-11197.19
2022-10-23T05:51:28.311Z,-11197.88
2022-10-23T05:54:35.796Z,-11195.63
2022-10-23T05:57:42.093Z,-11208.56
2022-10-23T06:00:48.387Z,-11233.75
2022-10-23T06:03:54.843Z,-11229.25
2022-10-23T06:07:01.219Z,-11256.25
2022-10-23T06:10:09.843Z,-11254.16
2022-10-23T06:13:16.455Z,-11226.84
2022-10-23T06:16:24.772Z,-11233.88
2022-10-23T06:19:31.411Z,-11243.75
2022-10-23T06:22:37.733Z,-11250.50
2022-10-23T06:25:53.616Z,-11263.44
2022-10-23T06:29:00.151Z,-11253.31
2022-10-23T06:32:06.330Z,-11272.72
2022-10-23T06:35:12.306Z,-11274.69
2022-10-23T06:38:18.700Z,-11285.13
2022-10-23T06:41:26.214Z,-11295.53
2022-10-23T06:44:32.171Z,-11298.78
2022-10-23T06:47:38.425Z,-11311.28
2022-10-23T06:50:44.938Z,-11320.31
2022-10-23T06:53:51.326Z,-11326.78
2022-10-23T06:56:59.000Z,-11325.66
2022-10-23T07:00:05.783Z,-11334.09
2022-10-23T07:03:11.988Z,-11347.34
2022-10-23T07:06:17.945Z,-11353.13
2022-10-23T07:09:24.432Z,-11424.56
2022-10-23T07:12:32.044Z,-11443.03
2022-10-23T07:15:38.537Z,-11446.28
2022-10-23T07:18:45.348Z,-11452.19
2022-10-23T07:21:52.510Z,-11460.38
2022-10-23T07:24:58.782Z,-11462.63
2022-10-23T07:28:06.872Z,-11460.09
2022-10-23T07:31:13.437Z,-11466.00
2022-10-23T07:34:19.377Z,-11473.78
2022-10-23T07:37:25.850Z,-11475.47
2022-10-23T07:40:32.503Z,-11471.37
2022-10-23T07:43:40.597Z,-11473.91
2022-10-23T07:46:47.031Z,-11478.44
2022-10-23T07:49:53.162Z,-11475.47
2022-10-23T07:53:00.335Z,-11478.72
2022-10-23T07:56:14.343Z,-11477.31
2022-10-23T07:59:22.057Z,-11483.38
2022-10-23T08:02:28.239Z,-11485.63
2022-10-23T08:05:34.302Z,-11485.19
2022-10-23T08:08:40.566Z,-11487.03
2022-10-23T08:11:46.651Z,-11488.59
2022-10-23T08:14:54.763Z,-11494.22
2022-10-23T08:18:01.196Z,-11488.31
2022-10-23T08:21:07.735Z,-11489.72
2022-10-23T08:24:14.390Z,-11494.66
2022-10-23T08:27:20.775Z,-11489.72
2022-10-23T08:30:28.656Z,-11495.91
2022-10-23T08:33:35.244Z,-11495.50
2022-10-23T08:36:42.251Z,-11493.09
2022-10-23T08:39:51.313Z,-11488.44
2022-10-23T08:43:06.771Z,-11493.25
2022-10-23T08:46:19.086Z,-11503.69
2022-10-23T08:49:36.015Z,-11498.44
2022-10-23T08:52:49.056Z,-11496.63
2022-10-23T08:56:01.958Z,-11506.62
2022-10-23T08:59:20.378Z,-11506.94
2022-10-23T09:02:31.454Z,-11508.75
2022-10-23T09:05:47.837Z,-11501.84
2022-10-23T09:09:00.657Z,-11511.56
2022-10-23T09:12:12.755Z,-11513.13
2022-10-23T09:15:29.382Z,-11507.06
2022-10-23T09:18:36.746Z,-11502.13
2022-10-23T09:21:43.518Z,-11510.31
2022-10-23T09:24:53.726Z,-11513.97
2022-10-23T09:28:05.222Z,-11510.03
2022-10-23T09:31:13.779Z,-11508.75
2022-10-23T09:34:23.566Z,-11512.69
2022-10-23T09:37:32.431Z,-11521.59
2022-10-23T09:40:42.139Z,-11521.03
2022-10-23T09:43:48.499Z,-11522.16
2022-10-23T09:46:56.398Z,-11530.06
2022-10-23T09:50:03.767Z,-11532.88
2022-10-23T09:53:18.493Z,-11538.09
2022-10-23T09:56:30.857Z,-11536.56
2022-10-23T09:59:37.154Z,-11542.75
2022-10-23T10:02:45.179Z,-11552.06
2022-10-23T10:05:58.986Z,-11547.97
2022-10-23T10:09:09.809Z,-11543.88
2022-10-23T10:12:30.220Z,-11550.66
2022-10-23T10:15:44.642Z,-11551.66
2022-10-23T10:18:57.569Z,-11567.31
2022-10-23T10:22:15.109Z,-11554.75
2022-10-23T10:25:24.859Z,-11559.69
2022-10-23T10:28:51.189Z,-11551.37
2022-10-23T10:32:07.004Z,-11548.53
2022-10-23T10:35:38.474Z,-11550.25
2022-10-23T10:38:50.419Z,-11549.25
2022-10-23T10:42:23.758Z,-11551.37
2022-10-23T10:45:34.896Z,-11555.75
2022-10-23T10:48:50.819Z,-11556.16
2022-10-23T10:52:04.318Z,-11550.25
2022-10-23T10:55:20.179Z,-11548.41
2022-10-23T10:58:43.352Z,-11555.47
2022-10-23T11:01:58.128Z,-11555.19
2022-10-23T11:05:20.482Z,-11550.94
2022-10-23T11:08:44.389Z,-11546.72
2022-10-23T11:12:01.175Z,-11550.94
2022-10-23T11:15:14.433Z,-11556.31
2022-10-23T11:18:27.026Z,-11550.25
2022-10-23T11:21:39.689Z,-11565.91
2022-10-23T11:25:24.178Z,-11551.50
2022-10-23T11:28:46.792Z,-11555.88
2022-10-23T11:32:07.775Z,-11560.25
2022-10-23T11:35:49.307Z,-11555.75
2022-10-23T11:38:59.245Z,-11563.91
2022-10-23T11:42:15.812Z,-11554.91
2022-10-23T11:45:44.741Z,-11546.28
2022-10-23T11:48:51.770Z,-11552.91
2022-10-23T11:52:03.078Z,-11550.94
2022-10-23T11:55:20.395Z,-11548.41
2022-10-23T11:58:32.217Z,-11553.06
2022-10-23T12:01:45.594Z,-11546.44
2022-10-23T12:04:54.183Z,-11550.25
2022-10-23T12:08:03.105Z,-11558.84
2022-10-23T12:11:27.894Z,-11550.66
2022-10-23T12:14:39.056Z,-11557.44
2022-10-23T12:17:47.911Z,-11565.47
2022-10-23T12:20:57.514Z,-11550.94
2022-10-23T12:24:16.003Z,-11553.47
2022-10-23T12:27:34.212Z,-11552.50
2022-10-23T12:30:45.789Z,-11549.25
2022-10-23T12:34:03.320Z,-11552.91
2022-10-23T12:37:29.759Z,-11543.75
2022-10-23T12:40:35.746Z,-11547.41
2022-10-23T12:43:44.011Z,-11548.97
2022-10-23T12:46:53.351Z,-11556.88
2022-10-23T12:50:01.050Z,-11553.47
2022-10-23T12:53:08.894Z,-11552.22
2022-10-23T12:56:16.935Z,-11554.75
2022-10-23T12:59:27.297Z,-11563.63
2022-10-23T13:02:33.863Z,-11556.59
2022-10-23T13:05:41.582Z,-11553.19
2022-10-23T13:08:49.190Z,-11547.56
2022-10-23T13:11:57.290Z,-11567.31
2022-10-23T13:15:15.045Z,-11559.25
2022-10-23T13:18:21.146Z,-11564.78
2022-10-23T13:21:30.236Z,-11570.13
2022-10-23T13:24:36.183Z,-11570.97
2022-10-23T13:27:43.075Z,-11561.09
2022-10-23T13:31:07.660Z,-11567.19
2022-10-23T13:34:22.595Z,-11574.78
2022-10-23T13:37:31.647Z,-11565.06
2022-10-23T13:40:37.772Z,-11550.38
2022-10-23T13:43:45.173Z,-11546.44
2022-10-23T13:46:53.220Z,-11548.13
2022-10-23T13:49:59.649Z,-11546.16
2022-10-23T13:53:09.691Z,-11531.47
2022-10-23T13:56:18.720Z,-11528.38
2022-10-23T13:59:25.263Z,-11518.22
2022-10-23T14:02:31.668Z,-11513.97
2022-10-23T14:05:37.837Z,-11514.41
2022-10-23T14:08:45.829Z,-11510.03
2022-10-23T14:11:52.210Z,-11507.22
2022-10-23T14:14:58.691Z,-11504.38
2022-10-23T14:18:08.243Z,-11505.66
2022-10-23T14:21:17.425Z,-11499.72
2022-10-23T14:24:25.258Z,-11502.28
2022-10-23T14:27:31.555Z,-11492.25
2022-10-23T14:30:37.959Z,-11490.28
2022-10-23T14:33:45.617Z,-11491.41
2022-10-23T14:37:07.279Z,-11480.97
2022-10-23T14:40:15.805Z,-11484.91
2022-10-23T14:43:22.933Z,-11482.94
2022-10-23T14:46:29.638Z,-11479.84
2022-10-23T14:49:35.970Z,-11475.91
2022-10-23T14:52:42.379Z,-11475.47
2022-10-23T14:55:50.167Z,-11472.94
2022-10-23T14:59:02.631Z,-11476.88
2022-10-23T15:02:11.535Z,-11474.19
2022-10-23T15:05:18.699Z,-11473.91
2022-10-23T15:08:25.199Z,-11467.72
2022-10-23T15:11:33.015Z,-11465.72
2022-10-23T15:14:39.380Z,-11467.28
2022-10-23T15:17:45.855Z,-11460.25
2022-10-23T15:20:54.016Z,-11463.06
2022-10-23T15:24:01.863Z,-11459.81
2022-10-23T15:30:20.504Z,-11458.41
2022-10-23T15:33:27.427Z,-11457.13
2022-10-23T15:36:33.923Z,-11455.03
2022-10-23T15:39:40.166Z,-11453.75
2022-10-23T15:42:51.739Z,-11449.38
2022-10-23T15:45:57.614Z,-11450.50
2022-10-23T15:49:04.847Z,-11448.81
2022-10-23T15:52:11.871Z,-11446.28
2022-10-23T15:55:18.518Z,-11442.75
2022-10-23T15:58:26.186Z,-11439.38
2022-10-23T16:01:32.677Z,-11438.66
2022-10-23T16:04:39.195Z,-11436.97
2022-10-23T16:07:45.411Z,-11436.56
2022-10-23T16:10:51.962Z,-11434.16
2022-10-23T16:14:01.711Z,-11431.34
2022-10-23T16:17:08.773Z,-11436.13
2022-10-23T16:20:15.165Z,-11436.56
2022-10-23T16:23:21.709Z,-11432.59
2022-10-23T16:26:29.268Z,-11430.34
2022-10-23T16:29:37.273Z,-11422.44
2022-10-23T16:32:43.639Z,-11431.63
2022-10-23T16:35:50.030Z,-11436.97
2022-10-23T16:38:57.014Z,-11434.44
2022-10-23T16:42:03.409Z,-11433.88
2022-10-23T16:45:12.043Z,-11423.72
2022-10-23T16:48:18.692Z,-11412.16
2022-10-23T16:51:27.424Z,-11406.66
2022-10-23T16:54:33.924Z,-11398.06
2022-10-23T16:57:40.431Z,-11396.94
2022-10-23T17:00:57.460Z,-11398.78
2022-10-23T17:04:03.864Z,-11400.59
2022-10-23T17:07:10.223Z,-11390.47
2022-10-23T17:10:16.732Z,-11376.78
2022-10-23T17:13:23.087Z,-11376.78
2022-10-23T17:16:34.528Z,-11368.75
2022-10-23T17:19:46.056Z,-11369.03
2022-10-23T17:22:52.599Z,-11372.16
2022-10-23T17:25:59.562Z,-11355.66
2022-10-23T17:29:09.130Z,-11353.25
2022-10-23T17:32:16.828Z,-11361.72
2022-10-23T17:35:23.003Z,-11351.28
2022-10-23T17:38:29.243Z,-11345.94
2022-10-23T17:41:35.915Z,-11345.66
2022-10-23T17:44:41.998Z,-11341.72
2022-10-23T17:47:49.731Z,-11328.75
2022-10-23T17:51:04.435Z,-11331.84
2022-10-23T17:54:14.694Z,-11333.69
2022-10-23T18:00:32.111Z,-11316.78
2022-10-23T18:03:41.135Z,-11315.66
2022-10-23T18:06:50.198Z,-11315.53
2022-10-23T18:09:56.261Z,-11309.03
2022-10-23T18:13:02.724Z,-11310.44
2022-10-23T18:16:11.440Z,-11309.59
2022-10-23T18:19:20.258Z,-11301.59
2022-10-23T18:22:26.144Z,-11301.44
2022-10-23T18:25:32.532Z,-11298.78
2022-10-23T18:28:39.069Z,-11290.75
2022-10-23T18:31:48.337Z,-11288.78
2022-10-23T18:34:55.880Z,-11292.84
2022-10-23T18:38:03.423Z,-11282.84
2022-10-23T18:41:13.483Z,-11285.41
2022-10-23T18:44:21.799Z,-11279.19
2022-10-23T18:47:28.029Z,-11266.25
2022-10-23T18:50:38.624Z,-11270.19
2022-10-23T18:53:47.005Z,-11272.44
2022-10-23T18:56:53.196Z,-11268.78
2022-10-23T18:59:59.641Z,-11261.31
2022-10-23T19:03:06.503Z,-11271.31
2022-10-23T19:06:14.043Z,-11268.50
2022-10-23T19:09:20.713Z,-11259.50
2022-10-23T19:12:27.032Z,-11248.25
2022-10-23T19:15:34.900Z,-11258.78
2022-10-23T19:18:44.092Z,-11255.56
2022-10-23T19:21:52.510Z,-11253.88
2022-10-23T19:25:01.102Z,-11254.16
2022-10-23T19:28:07.304Z,-11250.50
2022-10-23T19:31:14.285Z,-11246.00
2022-10-23T19:34:22.923Z,-11248.53
2022-10-23T19:37:30.401Z,-11247.69
2022-10-23T19:40:36.464Z,-11247.69
2022-10-23T19:43:43.136Z,-11248.38
2022-10-23T19:46:49.598Z,-11242.03
2022-10-23T19:49:55.716Z,-11248.81
2022-10-23T19:53:03.678Z,-11238.81
2022-10-23T19:56:12.214Z,-11228.81
2022-10-23T19:59:19.129Z,-11232.47
2022-10-23T20:02:25.253Z,-11211.66
2022-10-23T20:05:32.262Z,-11218.69
2022-10-23T20:08:40.339Z,-11208.28
2022-10-23T20:11:46.658Z,-11212.22
2022-10-23T20:14:54.975Z,-11201.69
2022-10-23T20:18:01.158Z,-11213.06
2022-10-23T20:21:07.791Z,-11206.03
2022-10-23T20:24:17.352Z,-11204.34
2022-10-23T20:27:23.726Z,-11209.13
2022-10-23T20:30:30.145Z,-11215.19
2022-10-23T20:33:37.160Z,-11204.06
2022-10-23T20:36:46.771Z,-11196.06
2022-10-23T20:39:55.966Z,-11205.19
2022-10-23T20:43:01.938Z,-11194.50
2022-10-23T20:46:10.492Z,-11194.38
2022-10-23T20:49:17.131Z,-11184.53
2022-10-23T20:52:23.574Z,-11199.00
2022-10-23T20:55:31.274Z,-11200.69
2022-10-23T20:58:37.410Z,-11214.19
2022-10-23T21:01:46.257Z,-11211.25
2022-10-23T21:04:52.430Z,-11196.47
2022-10-23T21:07:58.648Z,-11199.72
2022-10-23T21:11:08.106Z,-11209.41
2022-10-23T21:14:14.634Z,-11202.38
2022-10-23T21:17:20.910Z,-11204.34
2022-10-23T21:20:27.311Z,-11205.06
2022-10-23T21:23:33.800Z,-11205.63
2022-10-23T21:26:41.723Z,-11198.31
2022-10-23T21:29:48.028Z,-11176.50
2022-10-23T21:32:54.401Z,-11173.84
2022-10-23T21:36:12.837Z,-11177.91
2022-10-23T21:39:19.534Z,-11179.31
2022-10-23T21:42:26.987Z,-11171.47
2022-10-23T21:45:33.115Z,-11169.06
2022-10-23T21:48:40.317Z,-11180.03
2022-10-23T21:51:47.401Z,-11175.38
2022-10-23T21:54:53.564Z,-11184.66
2022-10-23T21:58:01.355Z,-11164.44
2022-10-23T22:01:07.862Z,-11161.06
2022-10-23T22:04:17.269Z,-11163.88
2022-10-23T22:07:23.657Z,-11171.19
2022-10-23T22:10:29.788Z,-11183.53
2022-10-23T22:13:37.595Z,-11176.09
2022-10-23T22:16:43.760Z,-11181.44
2022-10-23T22:19:50.183Z,-11180.59
2022-10-23T22:22:56.536Z,-11172.72
2022-10-23T22:26:07.145Z,-11175.09
2022-10-23T22:29:16.765Z,-11145.88
2022-10-23T22:32:23.092Z,-11154.03
2022-10-23T22:35:30.874Z,-11140.41
2022-10-23T22:38:37.270Z,-11140.41
2022-10-23T22:41:44.098Z,-11135.19
2022-10-23T22:44:51.401Z,-11147.00
2022-10-23T22:47:58.017Z,-11149.81
2022-10-23T22:51:08.331Z,-11159.94
2022-10-23T22:54:15.387Z,-11169.78
2022-10-23T22:57:21.752Z,-11151.78
2022-10-23T23:00:29.301Z,-11140.53
2022-10-23T23:03:36.700Z,-11141.38
2022-10-23T23:06:43.044Z,-11152.91
2022-10-23T23:09:49.453Z,-11146.44
2022-10-23T23:12:55.550Z,-11145.31
2022-10-23T23:16:04.170Z,-11129.59
2022-10-23T23:19:12.601Z,-11136.03
2022-10-23T23:22:18.797Z,-11147.56
2022-10-23T23:25:25.007Z,-11141.38
2022-10-23T23:28:31.375Z,-11137.72
2022-10-23T23:31:39.293Z,-11121.28
2022-10-23T23:34:45.291Z,-11131.81
2022-10-23T23:37:51.443Z,-11154.31
2022-10-23T23:40:57.767Z,-11149.94
2022-10-23T23:44:03.772Z,-11152.06
2022-10-23T23:47:11.342Z,-11148.81
2022-10-23T23:50:18.157Z,-11137.44
2022-10-23T23:53:24.320Z,-11148.97
2022-10-23T23:56:32.042Z,-11138.56
2022-10-23T23:59:38.716Z,-11161.34
